createdAt,value
2022-07-25T00:01:20.650Z,60.58
2022-07-25T00:03:45.374Z,60.37
2022-07-25T00:06:13.545Z,60.46
2022-07-25T00:08:38.170Z,60.45
2022-07-25T00:11:04.535Z,60.31
2022-07-25T00:13:30.961Z,60.07
2022-07-25T00:15:57.435Z,60.37
2022-07-25T00:18:23.792Z,60.52
2022-07-25T00:20:50.177Z,60.56
2022-07-25T00:23:16.601Z,60.31
2022-07-25T00:25:42.982Z,60.11
2022-07-25T00:28:09.366Z,60.25
2022-07-25T00:30:35.783Z,60.61
2022-07-25T00:33:02.226Z,60.61
2022-07-25T00:35:28.580Z,60.54
2022-07-25T00:37:54.994Z,60.50
2022-07-25T00:40:21.367Z,60.23
2022-07-25T00:42:47.861Z,60.26
2022-07-25T00:45:14.226Z,60.16
2022-07-25T00:47:40.622Z,59.71
2022-07-25T00:50:07.023Z,59.25
2022-07-25T00:52:33.480Z,58.99
2022-07-25T00:54:59.846Z,59.31
2022-07-25T00:57:26.265Z,59.31
2022-07-25T00:59:52.615Z,59.14
2022-07-25T01:02:19.022Z,59.34
2022-07-25T01:04:45.358Z,59.73
2022-07-25T01:07:11.722Z,59.61
2022-07-25T01:09:38.122Z,59.55
2022-07-25T01:12:04.492Z,59.35
2022-07-25T01:14:30.853Z,59.71
2022-07-25T01:16:57.254Z,59.63
2022-07-25T01:19:23.620Z,60.05
2022-07-25T01:21:50.070Z,60.28
2022-07-25T01:24:16.487Z,60.36
2022-07-25T01:26:42.849Z,60.49
2022-07-25T01:29:09.216Z,60.37
2022-07-25T01:31:35.653Z,60.69
2022-07-25T01:34:02.144Z,60.88
2022-07-25T01:36:28.424Z,61.22
2022-07-25T01:38:54.813Z,60.59
2022-07-25T01:41:22.295Z,60.62
2022-07-25T01:43:47.660Z,60.34
2022-07-25T01:46:14.071Z,60.09
2022-07-25T01:48:40.493Z,59.86
2022-07-25T01:51:06.825Z,59.86
2022-07-25T01:53:33.196Z,59.63
2022-07-25T01:55:59.566Z,59.69
2022-07-25T01:58:26.054Z,59.97
2022-07-25T02:00:52.483Z,60.18
2022-07-25T02:03:18.919Z,60.29
2022-07-25T02:05:45.354Z,60.32
2022-07-25T02:08:11.713Z,60.47
2022-07-25T02:10:38.098Z,60.56
2022-07-25T02:13:04.459Z,60.88
2022-07-25T02:15:30.844Z,61.20
2022-07-25T02:17:57.242Z,61.17
2022-07-25T02:20:23.598Z,61.02
2022-07-25T02:22:49.983Z,61.11
2022-07-25T02:25:16.349Z,61.16
2022-07-25T02:27:42.715Z,61.33
2022-07-25T02:30:09.167Z,61.43
2022-07-25T02:32:35.601Z,61.55
2022-07-25T02:35:02.036Z,61.77
2022-07-25T02:37:28.469Z,61.94
2022-07-25T02:39:54.852Z,62.11
2022-07-25T02:42:21.215Z,62.05
2022-07-25T02:44:47.677Z,62.17
2022-07-25T02:47:14.067Z,62.26
2022-07-25T02:49:40.456Z,62.06
2022-07-25T02:52:06.816Z,62.12
2022-07-25T02:54:33.295Z,62.26
2022-07-25T02:56:59.675Z,62.33
2022-07-25T02:59:26.063Z,62.37
2022-07-25T03:01:52.497Z,62.19
2022-07-25T03:04:18.836Z,62.17
2022-07-25T03:06:45.177Z,62.23
2022-07-25T03:09:11.547Z,61.94
2022-07-25T03:11:37.912Z,61.67
2022-07-25T03:14:04.736Z,61.44
2022-07-25T03:16:30.660Z,61.66
2022-07-25T03:18:57.018Z,61.60
2022-07-25T03:21:23.446Z,61.55
2022-07-25T03:24:03.958Z,61.59
2022-07-25T03:26:16.236Z,61.27
2022-07-25T03:28:42.625Z,61.26
2022-07-25T03:31:08.984Z,61.23
2022-07-25T03:33:35.402Z,61.25
2022-07-25T03:36:01.782Z,61.34
2022-07-25T03:38:28.166Z,61.32
2022-07-25T03:40:54.602Z,61.31
2022-07-25T03:43:21.034Z,61.37
2022-07-25T03:45:47.518Z,61.58
2022-07-25T03:48:13.830Z,61.43
2022-07-25T03:50:40.340Z,61.46
2022-07-25T03:53:06.770Z,61.54
2022-07-25T03:55:33.124Z,61.50
2022-07-25T03:57:59.520Z,61.38
2022-07-25T04:00:25.899Z,61.63
2022-07-25T04:02:52.304Z,61.65
2022-07-25T04:05:18.669Z,61.43
2022-07-25T04:07:45.031Z,61.35
2022-07-25T04:10:11.398Z,61.13
2022-07-25T04:12:37.823Z,61.09
2022-07-25T04:15:04.198Z,61.02
2022-07-25T04:17:30.563Z,61.14
2022-07-25T04:19:56.947Z,61.00
2022-07-25T04:22:23.346Z,60.55
2022-07-25T04:24:49.727Z,60.13
2022-07-25T04:27:16.213Z,59.94
2022-07-25T04:29:42.569Z,59.48
2022-07-25T04:32:08.987Z,59.06
2022-07-25T04:34:35.322Z,58.67
2022-07-25T04:37:01.745Z,58.60
2022-07-25T04:39:28.178Z,57.87
2022-07-25T04:41:54.611Z,57.66
2022-07-25T04:44:21.000Z,57.30
2022-07-25T04:46:47.347Z,56.86
2022-07-25T04:49:13.752Z,56.55
2022-07-25T04:51:40.135Z,56.41
2022-07-25T04:54:06.835Z,56.10
2022-07-25T04:56:33.005Z,55.90
2022-07-25T04:59:04.691Z,55.57
2022-07-25T05:01:25.798Z,55.24
2022-07-25T05:03:52.200Z,55.14
2022-07-25T05:06:18.559Z,54.12
2022-07-25T05:08:44.923Z,52.86
2022-07-25T05:11:11.400Z,51.86
2022-07-25T05:13:37.756Z,51.66
2022-07-25T05:16:04.299Z,50.68
2022-07-25T05:18:30.621Z,49.75
2022-07-25T05:20:56.986Z,48.92
2022-07-25T05:23:23.459Z,48.08
2022-07-25T05:25:49.855Z,47.76
2022-07-25T05:28:16.217Z,46.24
2022-07-25T05:30:42.603Z,43.65
2022-07-25T05:33:08.981Z,41.32
2022-07-25T05:35:35.418Z,40.98
2022-07-25T05:38:01.781Z,40.69
2022-07-25T05:40:28.156Z,41.45
2022-07-25T05:42:57.156Z,42.88
2022-07-25T05:45:20.916Z,42.47
2022-07-25T05:47:47.279Z,40.21
2022-07-25T05:50:13.708Z,39.46
2022-07-25T05:52:40.140Z,39.07
2022-07-25T05:55:06.508Z,38.59
2022-07-25T05:57:32.871Z,38.68
2022-07-25T05:59:59.243Z,38.18
2022-07-25T06:02:25.785Z,37.81
2022-07-25T06:04:52.102Z,37.77
2022-07-25T06:07:18.494Z,38.32
2022-07-25T06:09:44.871Z,38.07
2022-07-25T06:12:11.298Z,37.71
2022-07-25T06:14:37.660Z,37.80
2022-07-25T06:17:04.039Z,39.72
2022-07-25T06:19:30.514Z,39.51
2022-07-25T06:21:56.899Z,37.63
2022-07-25T06:24:23.359Z,37.96
2022-07-25T06:26:49.720Z,36.98
2022-07-25T06:29:16.250Z,36.07
2022-07-25T06:31:42.693Z,36.41
2022-07-25T06:34:09.392Z,36.95
2022-07-25T06:36:35.398Z,36.52
2022-07-25T06:39:01.772Z,36.01
2022-07-25T06:41:28.249Z,35.49
2022-07-25T06:43:54.620Z,36.13
2022-07-25T06:46:21.085Z,36.08
2022-07-25T06:48:47.452Z,36.55
2022-07-25T06:51:13.817Z,36.21
2022-07-25T06:53:40.240Z,36.11
2022-07-25T06:56:06.682Z,35.68
2022-07-25T06:58:33.060Z,35.93
2022-07-25T07:00:59.514Z,36.52
2022-07-25T07:03:26.055Z,36.47
2022-07-25T07:05:52.379Z,35.79
2022-07-25T07:08:18.769Z,36.03
2022-07-25T07:10:45.131Z,35.46
2022-07-25T07:13:11.525Z,34.14
2022-07-25T07:15:37.918Z,34.17
2022-07-25T07:18:04.253Z,33.45
2022-07-25T07:20:30.730Z,33.07
2022-07-25T07:22:57.145Z,33.68
2022-07-25T07:25:23.525Z,33.33
2022-07-25T07:27:49.933Z,33.55
2022-07-25T07:30:22.156Z,32.28
2022-07-25T07:32:42.719Z,32.48
2022-07-25T07:35:09.100Z,31.35
2022-07-25T07:37:40.009Z,31.39
2022-07-25T07:40:01.893Z,32.23
2022-07-25T07:42:28.382Z,32.64
2022-07-25T07:44:54.971Z,32.59
2022-07-25T07:47:21.366Z,33.65
2022-07-25T07:49:50.366Z,32.81
2022-07-25T07:52:14.234Z,32.84
2022-07-25T07:54:40.904Z,32.33
2022-07-25T07:57:07.285Z,32.04
2022-07-25T07:59:33.667Z,31.59
2022-07-25T08:02:00.168Z,31.08
2022-07-25T08:04:26.437Z,31.28
2022-07-25T08:06:52.826Z,31.02
2022-07-25T08:09:19.265Z,31.17
2022-07-25T08:11:45.699Z,31.05
2022-07-25T08:14:12.094Z,31.04
2022-07-25T08:16:38.551Z,30.33
2022-07-25T08:19:04.843Z,30.04
2022-07-25T08:21:31.330Z,30.01
2022-07-25T08:23:57.760Z,29.98
2022-07-25T08:26:24.195Z,30.47
2022-07-25T08:29:04.900Z,31.13
2022-07-25T08:31:16.966Z,30.05
2022-07-25T08:33:43.307Z,30.07
2022-07-25T08:36:09.677Z,30.07
2022-07-25T08:38:36.079Z,29.41
2022-07-25T08:41:02.442Z,29.50
2022-07-25T08:43:28.803Z,29.87
2022-07-25T08:45:55.288Z,30.08
2022-07-25T08:48:21.577Z,29.85
2022-07-25T08:50:47.964Z,29.73
2022-07-25T08:53:32.735Z,29.03
2022-07-25T08:55:40.698Z,29.25
2022-07-25T08:58:07.103Z,28.93
2022-07-25T09:00:33.561Z,28.65
2022-07-25T09:02:59.955Z,28.52
2022-07-25T09:05:26.290Z,29.67
2022-07-25T09:07:52.659Z,29.37
2022-07-25T09:10:19.171Z,28.75
2022-07-25T09:12:45.558Z,28.55
2022-07-25T09:15:12.004Z,28.83
2022-07-25T09:17:38.466Z,28.53
2022-07-25T09:20:04.897Z,27.81
2022-07-25T09:22:31.260Z,27.91
2022-07-25T09:24:57.666Z,27.17
2022-07-25T09:27:24.028Z,27.73
2022-07-25T09:29:50.435Z,29.97
2022-07-25T09:32:16.825Z,31.76
2022-07-25T09:34:43.287Z,32.40
2022-07-25T09:37:09.727Z,33.15
2022-07-25T09:39:36.085Z,33.36
2022-07-25T09:42:02.491Z,33.98
2022-07-25T09:44:28.925Z,34.78
2022-07-25T09:46:55.318Z,34.58
2022-07-25T09:49:21.689Z,33.90
2022-07-25T09:51:48.063Z,31.03
2022-07-25T09:54:14.431Z,29.29
2022-07-25T09:56:40.811Z,27.94
2022-07-25T09:59:07.227Z,28.13
2022-07-25T10:01:33.634Z,26.52
2022-07-25T10:03:59.980Z,25.32
2022-07-25T10:06:26.359Z,25.23
2022-07-25T10:08:52.717Z,25.67
2022-07-25T10:11:19.179Z,23.87
2022-07-25T10:13:45.563Z,24.97
2022-07-25T10:16:11.944Z,25.24
2022-07-25T10:18:38.314Z,26.80
2022-07-25T10:21:22.958Z,28.76
2022-07-25T10:23:31.036Z,27.68
2022-07-25T10:25:57.426Z,26.54
2022-07-25T10:28:23.783Z,25.10
2022-07-25T10:30:50.356Z,24.81
2022-07-25T10:33:16.691Z,24.57
2022-07-25T10:35:43.090Z,25.45
2022-07-25T10:38:09.488Z,25.37
2022-07-25T10:40:35.875Z,25.05
2022-07-25T10:43:02.254Z,25.77
2022-07-25T10:45:28.727Z,25.68
2022-07-25T10:47:55.107Z,24.25
2022-07-25T10:50:34.848Z,24.11
2022-07-25T10:52:47.985Z,25.58
2022-07-25T10:55:14.365Z,25.59
2022-07-25T10:57:54.949Z,23.84
2022-07-25T11:00:07.117Z,23.63
2022-07-25T11:02:33.562Z,24.32
2022-07-25T11:04:59.847Z,25.11
2022-07-25T11:07:26.309Z,24.43
2022-07-25T11:09:52.714Z,24.27
2022-07-25T11:12:19.181Z,23.79
2022-07-25T11:14:45.546Z,23.93
2022-07-25T11:17:11.983Z,25.71
2022-07-25T11:19:38.318Z,26.63
2022-07-25T11:22:04.702Z,27.16
2022-07-25T11:24:31.087Z,26.27
2022-07-25T11:26:57.466Z,24.97
2022-07-25T11:29:23.911Z,25.19
2022-07-25T11:31:50.327Z,24.98
2022-07-25T11:34:16.659Z,25.13
2022-07-25T11:36:43.058Z,24.71
2022-07-25T11:39:11.420Z,24.48
2022-07-25T11:41:35.971Z,24.58
2022-07-25T11:44:02.340Z,24.53
2022-07-25T11:46:28.783Z,24.63
2022-07-25T11:48:55.230Z,25.17
2022-07-25T11:51:21.523Z,25.64
2022-07-25T11:53:47.897Z,25.45
2022-07-25T11:56:39.614Z,25.08
2022-07-25T11:58:40.650Z,24.51
2022-07-25T12:01:07.017Z,24.55
2022-07-25T12:03:33.440Z,24.36
2022-07-25T12:05:59.891Z,25.22
2022-07-25T12:08:26.271Z,25.65
2022-07-25T12:10:52.636Z,24.78
2022-07-25T12:13:19.088Z,25.07
2022-07-25T12:15:45.463Z,25.15
2022-07-25T12:18:11.826Z,25.32
2022-07-25T12:20:38.251Z,25.13
2022-07-25T12:23:04.725Z,25.87
2022-07-25T12:25:31.316Z,25.93
2022-07-25T12:27:57.466Z,25.88
2022-07-25T12:30:23.870Z,26.05
2022-07-25T12:32:50.256Z,26.34
2022-07-25T12:35:16.638Z,25.82
2022-07-25T12:37:43.104Z,26.27
2022-07-25T12:40:09.504Z,26.74
2022-07-25T12:42:36.226Z,27.05
2022-07-25T12:45:02.584Z,27.31
2022-07-25T12:47:28.949Z,27.52
2022-07-25T12:49:55.376Z,27.42
2022-07-25T12:52:21.914Z,26.51
2022-07-25T12:54:48.346Z,25.94
2022-07-25T12:57:14.712Z,26.23
2022-07-25T12:59:41.100Z,26.30
2022-07-25T13:02:07.595Z,26.36
2022-07-25T13:04:33.905Z,26.19
2022-07-25T13:07:00.311Z,26.54
2022-07-25T13:09:26.731Z,26.19
2022-07-25T13:11:53.167Z,26.49
2022-07-25T13:14:19.604Z,27.04
2022-07-25T13:16:46.113Z,27.03
2022-07-25T13:19:12.410Z,27.14
2022-07-25T13:21:38.818Z,26.98
2022-07-25T13:24:05.238Z,27.19
2022-07-25T13:26:31.624Z,27.00
2022-07-25T13:28:59.927Z,27.37
2022-07-25T13:31:24.416Z,27.39
2022-07-25T13:33:50.787Z,27.22
2022-07-25T13:36:17.155Z,27.76
2022-07-25T13:38:43.627Z,27.48
2022-07-25T13:41:10.061Z,27.51
2022-07-25T13:43:36.446Z,26.98
2022-07-25T13:46:05.040Z,27.45
2022-07-25T13:48:31.588Z,26.97
2022-07-25T13:50:57.693Z,27.31
2022-07-25T13:53:29.498Z,26.80
2022-07-25T13:55:50.466Z,26.59
2022-07-25T13:58:16.939Z,26.90
2022-07-25T14:00:43.415Z,27.10
2022-07-25T14:03:09.672Z,27.21
2022-07-25T14:05:36.055Z,27.11
2022-07-25T14:08:02.464Z,28.77
2022-07-25T14:10:28.829Z,29.74
2022-07-25T14:12:55.201Z,30.20
2022-07-25T14:15:21.590Z,30.31
2022-07-25T14:17:47.995Z,30.67
2022-07-25T14:20:14.377Z,29.99
2022-07-25T14:22:40.850Z,29.66
2022-07-25T14:25:07.247Z,29.65
2022-07-25T14:27:33.626Z,29.70
2022-07-25T14:30:00.053Z,30.16
2022-07-25T14:32:26.492Z,30.69
2022-07-25T14:34:52.915Z,30.61
2022-07-25T14:37:19.283Z,31.10
2022-07-25T14:39:45.684Z,31.09
2022-07-25T14:42:12.117Z,31.49
2022-07-25T14:44:38.484Z,31.77
2022-07-25T14:47:08.964Z,31.39
2022-07-25T14:49:31.275Z,31.95
2022-07-25T14:51:57.753Z,31.90
2022-07-25T14:54:24.158Z,32.11
2022-07-25T14:56:50.519Z,32.14
2022-07-25T14:59:16.886Z,32.03
2022-07-25T15:01:43.265Z,31.88
2022-07-25T15:04:09.668Z,32.21
2022-07-25T15:06:36.033Z,32.43
2022-07-25T15:09:02.422Z,32.26
2022-07-25T15:11:28.792Z,32.57
2022-07-25T15:13:55.163Z,32.32
2022-07-25T15:16:21.587Z,32.11
2022-07-25T15:19:14.618Z,31.75
2022-07-25T15:21:14.299Z,31.88
2022-07-25T15:23:40.684Z,31.74
2022-07-25T15:26:07.047Z,32.09
2022-07-25T15:28:33.439Z,32.11
2022-07-25T15:30:59.913Z,32.62
2022-07-25T15:33:26.202Z,32.76
2022-07-25T15:35:52.567Z,33.05
2022-07-25T15:38:19.151Z,33.08
2022-07-25T15:40:45.488Z,33.44
2022-07-25T15:43:11.896Z,33.32
2022-07-25T15:45:38.388Z,33.25
2022-07-25T15:48:04.742Z,32.94
2022-07-25T15:50:31.151Z,33.12
2022-07-25T15:52:57.551Z,33.46
2022-07-25T15:55:23.922Z,33.18
2022-07-25T15:57:50.317Z,32.86
2022-07-25T16:00:16.746Z,33.06
2022-07-25T16:02:43.128Z,33.56
2022-07-25T16:05:09.535Z,33.99
2022-07-25T16:07:35.903Z,34.05
2022-07-25T16:10:02.300Z,33.90
2022-07-25T16:12:29.115Z,34.50
2022-07-25T16:14:55.498Z,34.83
2022-07-25T16:17:21.986Z,35.01
2022-07-25T16:19:48.420Z,35.20
2022-07-25T16:22:14.781Z,35.19
2022-07-25T16:24:41.176Z,35.44
2022-07-25T16:27:07.621Z,35.50
2022-07-25T16:29:33.993Z,35.54
2022-07-25T16:32:00.478Z,35.76
2022-07-25T16:34:29.210Z,35.94
2022-07-25T16:36:53.268Z,36.07
2022-07-25T16:39:19.625Z,36.12
2022-07-25T16:41:46.109Z,36.24
2022-07-25T16:44:12.541Z,36.49
2022-07-25T16:46:38.990Z,36.91
2022-07-25T16:49:05.616Z,37.11
2022-07-25T16:51:35.342Z,37.14
2022-07-25T16:53:58.119Z,37.12
2022-07-25T16:56:24.485Z,37.41
2022-07-25T16:58:50.870Z,37.80
2022-07-25T17:01:17.358Z,37.94
2022-07-25T17:03:43.755Z,37.91
2022-07-25T17:06:10.115Z,38.10
2022-07-25T17:08:36.518Z,38.41
2022-07-25T17:11:02.904Z,38.32
2022-07-25T17:13:29.269Z,38.36
2022-07-25T17:15:55.782Z,38.31
2022-07-25T17:18:22.138Z,38.38
2022-07-25T17:20:48.572Z,38.55
2022-07-25T17:23:14.922Z,38.58
2022-07-25T17:25:41.310Z,38.83
2022-07-25T17:28:07.745Z,38.93
2022-07-25T17:30:34.132Z,39.00
2022-07-25T17:33:00.496Z,39.22
2022-07-25T17:35:26.929Z,39.29
2022-07-25T17:37:53.276Z,39.60
2022-07-25T17:40:19.670Z,39.82
2022-07-25T17:42:46.121Z,39.74
2022-07-25T17:45:12.511Z,39.84
2022-07-25T17:47:38.897Z,39.93
2022-07-25T17:50:05.261Z,39.92
2022-07-25T17:52:31.681Z,40.34
2022-07-25T17:54:58.047Z,40.38
2022-07-25T17:57:24.431Z,40.71
2022-07-25T17:59:50.794Z,40.94
2022-07-25T18:02:17.158Z,40.88
2022-07-25T18:04:43.553Z,41.12
2022-07-25T18:07:09.931Z,41.09
2022-07-25T18:09:36.289Z,41.28
2022-07-25T18:12:02.690Z,41.34
2022-07-25T18:14:29.085Z,41.66
2022-07-25T18:16:55.444Z,41.86
2022-07-25T18:19:21.831Z,41.84
2022-07-25T18:21:48.211Z,42.17
2022-07-25T18:24:14.659Z,42.35
2022-07-25T18:26:41.052Z,42.60
2022-07-25T18:29:07.517Z,42.40
2022-07-25T18:31:33.983Z,42.57
2022-07-25T18:34:00.285Z,42.71
2022-07-25T18:36:26.664Z,42.84
2022-07-25T18:38:53.073Z,42.98
2022-07-25T18:41:29.363Z,43.24
2022-07-25T18:43:45.822Z,43.35
2022-07-25T18:46:12.242Z,43.40
2022-07-25T18:48:38.669Z,43.63
2022-07-25T18:51:05.124Z,43.74
2022-07-25T18:53:31.549Z,43.89
2022-07-25T18:55:57.917Z,43.94
2022-07-25T18:58:24.320Z,44.05
2022-07-25T19:00:50.684Z,44.11
2022-07-25T19:03:17.094Z,44.33
2022-07-25T19:05:43.619Z,44.42
2022-07-25T19:08:09.873Z,44.60
2022-07-25T19:10:36.236Z,44.76
2022-07-25T19:13:02.604Z,44.73
2022-07-25T19:15:29.020Z,44.89
2022-07-25T19:17:55.378Z,45.13
2022-07-25T19:20:21.761Z,45.01
2022-07-25T19:22:48.122Z,45.33
2022-07-25T19:25:14.510Z,45.26
2022-07-25T19:27:40.896Z,45.54
2022-07-25T19:30:07.257Z,45.75
2022-07-25T19:32:33.657Z,46.61
2022-07-25T19:35:00.052Z,45.90
2022-07-25T19:37:26.523Z,46.06
2022-07-25T19:39:52.899Z,46.92
2022-07-25T19:42:19.294Z,45.80
2022-07-25T19:44:45.724Z,45.81
2022-07-25T19:47:12.182Z,46.17
2022-07-25T19:49:38.479Z,46.08
2022-07-25T19:52:04.908Z,46.83
2022-07-25T19:54:31.267Z,47.08
2022-07-25T19:56:57.703Z,47.14
2022-07-25T19:59:24.206Z,47.60
2022-07-25T20:01:50.697Z,47.49
2022-07-25T20:04:17.012Z,48.11
2022-07-25T20:06:43.406Z,47.83
2022-07-25T20:09:10.200Z,47.80
2022-07-25T20:11:36.206Z,48.04
2022-07-25T20:14:02.553Z,48.85
2022-07-25T20:16:28.966Z,48.80
2022-07-25T20:18:55.294Z,49.31
2022-07-25T20:21:21.703Z,49.42
2022-07-25T20:23:48.082Z,50.03
2022-07-25T20:26:14.446Z,50.13
2022-07-25T20:28:40.866Z,50.37
2022-07-25T20:31:07.400Z,50.44
2022-07-25T20:33:33.716Z,50.86
2022-07-25T20:36:00.086Z,50.92
2022-07-25T20:38:26.446Z,51.39
2022-07-25T20:40:52.810Z,51.34
2022-07-25T20:43:19.197Z,51.62
2022-07-25T20:45:45.599Z,51.79
2022-07-25T20:48:12.120Z,51.92
2022-07-25T20:50:38.488Z,51.69
2022-07-25T20:53:04.859Z,51.95
2022-07-25T20:55:31.367Z,52.08
2022-07-25T20:57:57.761Z,52.18
2022-07-25T21:00:24.124Z,52.12
2022-07-25T21:02:50.634Z,51.76
2022-07-25T21:05:16.995Z,52.10
2022-07-25T21:07:43.354Z,52.42
2022-07-25T21:10:09.751Z,52.17
2022-07-25T21:12:36.180Z,51.93
2022-07-25T21:15:02.610Z,51.80
2022-07-25T21:17:28.973Z,52.10
2022-07-25T21:19:55.341Z,51.91
2022-07-25T21:22:21.731Z,52.16
2022-07-25T21:24:48.143Z,52.27
2022-07-25T21:27:14.495Z,52.56
2022-07-25T21:29:40.921Z,52.40
2022-07-25T21:32:07.326Z,52.75
2022-07-25T21:34:33.640Z,52.93
2022-07-25T21:37:00.033Z,53.03
2022-07-25T21:39:26.380Z,53.58
2022-07-25T21:41:55.403Z,54.00
2022-07-25T21:44:19.204Z,54.09
2022-07-25T21:46:45.623Z,54.53
2022-07-25T21:49:12.809Z,54.66
2022-07-25T21:51:40.228Z,55.71
2022-07-25T21:54:04.734Z,55.97
2022-07-25T21:56:31.162Z,56.77
2022-07-25T21:58:57.536Z,56.93
2022-07-25T22:01:23.971Z,57.18
2022-07-25T22:03:50.396Z,57.32
2022-07-25T22:06:16.789Z,57.68
2022-07-25T22:08:43.140Z,58.01
2022-07-25T22:11:20.678Z,58.40
2022-07-25T22:13:38.019Z,58.55
2022-07-25T22:16:02.455Z,58.69
2022-07-25T22:18:28.754Z,59.14
2022-07-25T22:20:55.132Z,59.14
2022-07-25T22:23:21.514Z,59.77
2022-07-25T22:25:47.897Z,60.40
2022-07-25T22:28:14.523Z,60.42
2022-07-25T22:30:40.640Z,60.85
2022-07-25T22:33:07.011Z,60.93
2022-07-25T22:35:33.380Z,61.49
2022-07-25T22:37:59.803Z,62.01
2022-07-25T22:40:26.232Z,61.89
2022-07-25T22:42:52.598Z,61.73
2022-07-25T22:45:18.982Z,61.55
2022-07-25T22:47:45.357Z,61.40
2022-07-25T22:50:11.718Z,61.22
2022-07-25T22:52:38.129Z,61.13
2022-07-25T22:55:04.489Z,61.12
2022-07-25T22:57:37.568Z,61.13
2022-07-25T22:59:57.394Z,60.93
2022-07-25T23:02:23.831Z,60.79
2022-07-25T23:04:50.202Z,60.75
2022-07-25T23:07:16.613Z,61.13
2022-07-25T23:09:42.996Z,61.36
2022-07-25T23:12:09.363Z,62.07
2022-07-25T23:14:35.791Z,62.40
2022-07-25T23:17:02.281Z,61.93
2022-07-25T23:19:28.657Z,62.10
2022-07-25T23:21:55.015Z,61.49
2022-07-25T23:24:21.424Z,61.83
2022-07-25T23:26:47.794Z,61.64
2022-07-25T23:29:14.168Z,62.24
2022-07-25T23:31:40.680Z,62.77
2022-07-25T23:34:07.047Z,63.15
2022-07-25T23:36:33.392Z,63.27
2022-07-25T23:38:59.912Z,63.55
2022-07-25T23:41:26.291Z,63.72
2022-07-25T23:43:59.602Z,64.25
2022-07-25T23:46:22.468Z,64.62
2022-07-25T23:48:45.556Z,64.93
2022-07-25T23:51:11.885Z,65.03
2022-07-25T23:53:38.271Z,65.09
2022-07-25T23:56:04.634Z,65.20
2022-07-25T23:58:30.985Z,65.39
